Time;durP1;ratioP1;P1;durP2;ratioP2;P2;SDS_P1;SDS_P2;PMS_P1;PMS_P2;Temp;Humidity;BMP_temperature;BMP_pressure;BME280_temperature;BME280_humidity;BME280_pressure;Samples;Min_cycle;Max_cycle;Signal;HPM_P1;HPM_P2
2022/02/04 00:01:10;;;;;;;13.73;5.88;;;;;;;;;;2108773;28;20039;-52
2022/02/04 00:06:13;;;;;;;12.45;5.20;;;;;;;;;;2112362;28;20180;-51
2022/02/04 00:07:51;;;;;;;12.00;5.38;;;;;;;;;;2107583;28;20497;-52
2022/02/04 00:09:10;;;;;;;18.48;5.78;;;;;;;;;;2106419;28;20047;-52
2022/02/04 00:21:21;;;;;;;11.45;4.05;;;;;;;;;;2110932;28;20569;-55
2022/02/04 00:23:44;;;;;;;14.00;5.13;;;;;;;;;;2104862;28;20437;-54
2022/02/04 00:24:45;;;;;;;14.30;5.85;;;;;;;;;;2115033;28;20071;-55
2022/02/04 00:26:09;;;;;;;9.30;4.10;;;;;;;;;;2114826;28;20047;-52
2022/02/04 00:27:16;;;;;;;10.57;5.20;;;;;;;;;;2112768;28;20468;-55
2022/02/04 00:28:25;;;;;;;16.40;6.10;;;;;;;;;;2114927;28;20071;-52
2022/02/04 00:29:32;;;;;;;13.60;6.35;;;;;;;;;;2108969;28;20405;-53
2022/02/04 00:30:37;;;;;;;12.88;5.15;;;;;;;;;;2105796;28;20119;-51
2022/02/04 00:31:43;;;;;;;17.17;6.13;;;;;;;;;;2107778;28;20129;-53
2022/02/04 00:32:46;;;;;;;15.50;5.70;;;;;;;;;;2107473;28;20044;-52
2022/02/04 00:33:50;;;;;;;12.02;3.92;;;;;;;;;;2106496;28;20585;-52
2022/02/04 00:35:00;;;;;;;13.85;4.85;;;;;;;;;;2110028;28;20530;-44
2022/02/04 00:36:09;;;;;;;9.40;4.25;;;;;;;;;;2114926;28;20473;-43
2022/02/04 00:37:21;;;;;;;14.27;5.22;;;;;;;;;;2115282;28;20135;-43
2022/02/04 00:38:28;;;;;;;13.15;5.03;;;;;;;;;;2107512;28;20131;-43
2022/02/04 00:39:36;;;;;;;9.90;5.43;;;;;;;;;;2110781;28;20126;-43
2022/02/04 00:40:41;;;;;;;12.38;5.63;;;;;;;;;;2109075;28;20055;-42
2022/02/04 00:41:43;;;;;;;11.38;5.45;;;;;;;;;;2114954;28;20075;-43
2022/02/04 00:42:44;;;;;;;14.35;5.00;;;;;;;;;;2114559;28;20071;-42
2022/02/04 00:43:48;;;;;;;14.07;5.07;;;;;;;;;;2112016;28;20059;-42
2022/02/04 00:44:56;;;;;;;17.38;6.43;;;;;;;;;;2114862;28;20488;-42
2022/02/04 00:46:23;;;;;;;14.90;4.90;;;;;;;;;;2111421;28;20048;-43
2022/02/04 00:47:50;;;;;;;12.77;5.03;;;;;;;;;;2114779;28;20489;-44
2022/02/04 00:48:59;;;;;;;11.95;4.68;;;;;;;;;;2113015;28;20067;-43
2022/02/04 00:50:07;;;;;;;16.17;5.95;;;;;;;;;;2107128;28;20483;-42
2022/02/04 00:51:14;;;;;;;13.32;5.43;;;;;;;;;;2106335;28;20134;-43
2022/02/04 00:52:22;;;;;;;14.00;5.47;;;;;;;;;;2109646;28;20844;-43
2022/02/04 00:53:31;;;;;;;13.70;5.60;;;;;;;;;;2114894;28;20079;-42
2022/02/04 00:54:43;;;;;;;10.27;5.00;;;;;;;;;;2113249;28;20126;-43
2022/02/04 00:56:00;;;;;;;13.73;5.55;;;;;;;;;;2114698;28;20086;-42
2022/02/04 00:57:11;;;;;;;14.32;6.15;;;;;;;;;;2115479;28;20126;-43
2022/02/04 01:13:08;;;;;;;17.48;6.93;;;;;;;;;;2109258;28;20468;-44
2022/02/04 01:13:36;;;;;;;13.55;5.53;;;;;;;;;;2096640;28;20083;-43
2022/02/04 01:26:33;;;;;;;12.85;5.18;;;;;;;;;;2107009;28;20113;-51
2022/02/04 01:27:34;;;;;;;14.25;5.70;;;;;;;;;;2106355;28;20497;-54
2022/02/04 01:28:38;;;;;;;16.63;6.13;;;;;;;;;;2110189;28;20044;-51
2022/02/04 01:29:50;;;;;;;17.23;7.35;;;;;;;;;;2106173;28;20122;-54
2022/02/04 01:30:51;;;;;;;17.38;6.90;;;;;;;;;;2106172;28;20052;-51
2022/02/04 01:31:52;;;;;;;11.60;5.78;;;;;;;;;;2107768;28;20075;-51
2022/02/04 01:32:53;;;;;;;12.48;6.30;;;;;;;;;;2106165;28;20051;-51
2022/02/04 01:33:55;;;;;;;16.77;5.90;;;;;;;;;;2106769;28;20044;-53
2022/02/04 01:34:57;;;;;;;10.85;5.10;;;;;;;;;;2111313;28;20051;-52
2022/02/04 01:35:58;;;;;;;10.17;4.67;;;;;;;;;;2108262;28;20408;-53
2022/02/04 01:37:00;;;;;;;13.27;5.22;;;;;;;;;;2108133;28;20123;-53
2022/02/04 01:38:01;;;;;;;15.77;6.10;;;;;;;;;;2112320;28;20069;-51
2022/02/04 01:39:03;;;;;;;10.70;5.55;;;;;;;;;;2114556;28;20055;-52
2022/02/04 01:40:04;;;;;;;16.00;5.97;;;;;;;;;;2112279;28;20500;-53
2022/02/04 01:41:07;;;;;;;13.57;6.20;;;;;;;;;;2114369;28;20040;-53
2022/02/04 01:42:08;;;;;;;10.15;5.18;;;;;;;;;;2114150;28;20082;-51
2022/02/04 01:43:09;;;;;;;18.00;7.25;;;;;;;;;;2111554;28;20044;-52
2022/02/04 01:44:20;;;;;;;13.80;5.85;;;;;;;;;;2114565;28;20086;-52
2022/02/04 01:45:21;;;;;;;16.17;6.60;;;;;;;;;;2113933;28;20123;-51
2022/02/04 01:46:23;;;;;;;16.98;7.63;;;;;;;;;;2110915;28;20505;-52
2022/02/04 01:47:23;;;;;;;18.00;6.70;;;;;;;;;;2114403;28;20076;-51
2022/02/04 01:48:25;;;;;;;20.58;6.88;;;;;;;;;;2112665;28;20043;-53
2022/02/04 01:49:28;;;;;;;16.08;6.95;;;;;;;;;;2113177;28;20131;-53
2022/02/04 01:50:30;;;;;;;12.80;5.78;;;;;;;;;;2114590;28;20134;-50
2022/02/04 01:51:31;;;;;;;;;;;;;;;;;;2110440;28;20303;-53
2022/02/04 01:52:32;;;;;;;13.73;5.65;;;;;;;;;;2114446;28;19920;-51
2022/02/04 01:53:34;;;;;;;13.70;5.35;;;;;;;;;;2114540;28;20075;-53
2022/02/04 01:54:34;;;;;;;18.25;6.07;;;;;;;;;;2109199;28;20067;-51
2022/02/04 01:55:36;;;;;;;12.57;6.30;;;;;;;;;;2114266;28;20120;-53
2022/02/04 01:56:37;;;;;;;16.88;7.05;;;;;;;;;;2114609;28;20067;-51
2022/02/04 01:57:38;;;;;;;13.25;5.20;;;;;;;;;;2111217;28;20043;-52
2022/02/04 01:58:39;;;;;;;18.08;5.90;;;;;;;;;;2114362;28;20054;-52
2022/02/04 01:59:40;;;;;;;14.65;5.85;;;;;;;;;;2112668;28;20047;-51
2022/02/04 02:00:41;;;;;;;14.68;5.75;;;;;;;;;;2112928;28;20471;-52
2022/02/04 02:01:43;;;;;;;14.90;6.18;;;;;;;;;;2106693;28;20105;-50
2022/02/04 02:02:44;;;;;;;14.63;5.93;;;;;;;;;;2109957;28;20101;-51
2022/02/04 02:03:45;;;;;;;19.92;6.72;;;;;;;;;;2106036;28;20451;-53
2022/02/04 02:04:46;;;;;;;16.70;6.38;;;;;;;;;;2105903;28;20127;-51
2022/02/04 02:05:48;;;;;;;16.03;6.63;;;;;;;;;;2109475;28;20047;-53
2022/02/04 02:06:52;;;;;;;15.32;6.10;;;;;;;;;;2114640;28;20126;-53
2022/02/04 02:07:55;;;;;;;15.77;6.55;;;;;;;;;;2115351;28;20074;-51
2022/02/04 02:08:55;;;;;;;;;;;;;;;;;;2107293;28;20466;-53
2022/02/04 02:10:00;;;;;;;12.27;5.05;;;;;;;;;;2105847;28;19920;-52
2022/02/04 02:11:01;;;;;;;16.48;5.75;;;;;;;;;;2108122;28;20043;-53
2022/02/04 02:12:06;;;;;;;19.55;6.70;;;;;;;;;;2113003;28;20047;-53
2022/02/04 02:13:17;;;;;;;11.07;5.03;;;;;;;;;;2114481;28;20130;-52
2022/02/04 02:14:20;;;;;;;15.52;6.13;;;;;;;;;;2111160;28;20144;-54
2022/02/04 02:15:28;;;;;;;12.00;5.55;;;;;;;;;;2114431;28;20051;-54
2022/02/04 02:16:55;;;;;;;16.13;6.47;;;;;;;;;;2113888;28;20043;-53
2022/02/04 02:33:18;;;;;;;9.80;4.88;;;;;;;;;;2114249;28;20146;-51
2022/02/04 02:35:57;;;;;;;8.07;3.83;;;;;;;;;;2105765;28;20501;-53
2022/02/04 02:38:01;;;;;;;13.95;5.20;;;;;;;;;;2107095;28;20268;-53
2022/02/04 02:42:09;;;;;;;14.32;5.70;;;;;;;;;;2105885;28;20048;-55
2022/02/04 02:44:36;;;;;;;15.77;5.57;;;;;;;;;;2097094;28;20137;-51
2022/02/04 02:45:56;;;;;;;14.48;5.05;;;;;;;;;;2110205;28;20051;-51
2022/02/04 02:47:18;;;;;;;13.63;5.00;;;;;;;;;;2114197;28;20067;-50
2022/02/04 02:48:36;;;;;;;9.73;3.50;;;;;;;;;;2111054;28;20165;-52
2022/02/04 02:51:29;;;;;;;14.68;5.30;;;;;;;;;;2082838;28;20498;-53
2022/02/04 02:52:46;;;;;;;13.93;5.40;;;;;;;;;;2105756;28;20052;-51
2022/02/04 02:53:59;;;;;;;12.73;4.78;;;;;;;;;;2107203;28;20353;-52
2022/02/04 02:55:13;;;;;;;18.25;5.78;;;;;;;;;;2107154;28;20689;-53
2022/02/04 02:56:38;;;;;;;11.80;5.32;;;;;;;;;;2107864;28;20050;-53
2022/02/04 02:58:01;;;;;;;15.98;5.35;;;;;;;;;;2107364;28;20044;-51
2022/02/04 02:59:06;;;;;;;8.48;4.00;;;;;;;;;;2109439;28;20127;-54
2022/02/04 03:00:12;;;;;;;10.40;4.95;;;;;;;;;;2114022;28;20068;-53
2022/02/04 03:01:14;;;;;;;11.82;4.60;;;;;;;;;;2111809;28;20164;-50
2022/02/04 03:02:15;;;;;;;13.55;5.35;;;;;;;;;;2110088;28;20050;-52
2022/02/04 03:03:18;;;;;;;11.90;4.63;;;;;;;;;;2107109;28;20512;-53
2022/02/04 03:04:22;;;;;;;15.73;5.30;;;;;;;;;;2107291;28;20127;-52
2022/02/04 03:05:23;;;;;;;19.30;5.85;;;;;;;;;;2112311;28;20143;-43
2022/02/04 03:06:24;;;;;;;7.00;3.67;;;;;;;;;;2115398;28;20477;-42
2022/02/04 03:07:25;;;;;;;15.70;5.65;;;;;;;;;;2116127;28;20490;-43
2022/02/04 03:08:27;;;;;;;16.92;5.53;;;;;;;;;;2112923;28;20092;-43
2022/02/04 03:09:28;;;;;;;;;;;;;;;;;;2116099;28;20134;-43
2022/02/04 03:10:29;;;;;;;12.23;5.10;;;;;;;;;;2113855;28;19926;-43
2022/02/04 03:11:31;;;;;;;16.42;5.38;;;;;;;;;;2113211;28;20051;-43
2022/02/04 03:12:32;;;;;;;15.45;6.05;;;;;;;;;;2115615;28;20074;-43
2022/02/04 03:13:34;;;;;;;13.07;5.70;;;;;;;;;;2110187;28;20140;-43
2022/02/04 03:14:35;;;;;;;16.98;5.45;;;;;;;;;;2115299;28;20291;-43
2022/02/04 03:15:37;;;;;;;12.17;5.20;;;;;;;;;;2115485;28;20051;-43
2022/02/04 03:16:38;;;;;;;16.65;5.82;;;;;;;;;;2113487;28;20131;-43
2022/02/04 03:17:40;;;;;;;14.85;5.40;;;;;;;;;;2115810;28;20082;-53
2022/02/04 03:18:46;;;;;;;16.63;6.18;;;;;;;;;;2116067;28;20130;-51
2022/02/04 03:19:52;;;;;;;16.02;6.68;;;;;;;;;;2112210;28;20067;-53
2022/02/04 03:20:57;;;;;;;11.27;5.57;;;;;;;;;;2115382;28;20254;-53
2022/02/04 03:22:04;;;;;;;16.23;5.88;;;;;;;;;;2113500;28;20118;-53
2022/02/04 03:23:05;;;;;;;14.10;5.82;;;;;;;;;;2107080;28;20363;-51
2022/02/04 03:24:10;;;;;;;11.63;5.53;;;;;;;;;;2107052;28;20485;-52
2022/02/04 03:25:13;;;;;;;17.50;5.70;;;;;;;;;;2113644;28;20078;-53
2022/02/04 03:26:22;;;;;;;13.10;5.30;;;;;;;;;;2115323;28;20560;-52
2022/02/04 03:27:26;;;;;;;11.45;5.35;;;;;;;;;;2114428;28;20515;-51
2022/02/04 03:28:30;;;;;;;16.35;6.45;;;;;;;;;;2108617;28;20272;-54
2022/02/04 03:29:38;;;;;;;15.57;5.85;;;;;;;;;;2107083;28;20079;-50
2022/02/04 03:30:40;;;;;;;14.23;5.85;;;;;;;;;;2108514;28;20039;-52
2022/02/04 03:31:46;;;;;;;13.10;5.18;;;;;;;;;;2107069;28;20048;-54
2022/02/04 03:32:51;;;;;;;17.90;6.28;;;;;;;;;;2108606;28;20694;-54
2022/02/04 03:33:52;;;;;;;11.25;5.50;;;;;;;;;;2113924;28;20067;-51
2022/02/04 03:34:53;;;;;;;15.18;6.10;;;;;;;;;;2115316;28;20130;-51
2022/02/04 03:35:54;;;;;;;19.77;5.82;;;;;;;;;;2113182;28;20071;-54
2022/02/04 03:36:56;;;;;;;16.33;5.90;;;;;;;;;;2114704;28;20451;-53
2022/02/04 03:37:57;;;;;;;18.75;6.05;;;;;;;;;;2115349;28;20493;-53
2022/02/04 03:38:58;;;;;;;14.70;6.95;;;;;;;;;;2112173;28;20071;-52
2022/02/04 03:40:00;;;;;;;12.60;5.95;;;;;;;;;;2115351;28;20485;-51
2022/02/04 03:41:01;;;;;;;14.77;6.05;;;;;;;;;;2115184;28;20385;-53
2022/02/04 03:42:02;;;;;;;15.50;5.63;;;;;;;;;;2110169;28;20080;-53
2022/02/04 03:43:03;;;;;;;12.23;5.57;;;;;;;;;;2106845;28;20044;-53
2022/02/04 03:44:04;;;;;;;15.70;5.10;;;;;;;;;;2107637;28;20127;-52
2022/02/04 03:45:06;;;;;;;17.10;5.88;;;;;;;;;;2112816;28;20047;-53
2022/02/04 03:46:07;;;;;;;14.80;6.00;;;;;;;;;;2115237;28;20496;-53
2022/02/04 03:47:08;;;;;;;14.15;5.30;;;;;;;;;;2113901;28;20818;-53
2022/02/04 03:48:09;;;;;;;17.23;5.95;;;;;;;;;;2107865;28;20044;-53
2022/02/04 03:49:10;;;;;;;22.20;6.72;;;;;;;;;;2106988;28;20130;-51
2022/02/04 03:50:12;;;;;;;16.77;6.68;;;;;;;;;;2107000;28;20493;-53
2022/02/04 03:51:13;;;;;;;18.08;6.07;;;;;;;;;;2115209;28;20381;-51
2022/02/04 03:52:14;;;;;;;14.48;5.85;;;;;;;;;;2115417;28;20039;-50
2022/02/04 03:53:15;;;;;;;19.60;6.47;;;;;;;;;;2112014;28;20047;-54
2022/02/04 03:54:17;;;;;;;11.93;5.80;;;;;;;;;;2115281;28;20090;-53
2022/02/04 03:55:18;;;;;;;16.83;6.00;;;;;;;;;;2113365;28;20130;-51
2022/02/04 03:56:19;;;;;;;15.43;5.47;;;;;;;;;;2111618;28;20511;-54
2022/02/04 03:57:20;;;;;;;13.30;5.35;;;;;;;;;;2115124;28;20512;-53
2022/02/04 03:58:22;;;;;;;14.18;5.30;;;;;;;;;;2113775;28;20093;-52
2022/02/04 03:59:25;;;;;;;12.15;4.88;;;;;;;;;;2113525;28;20054;-53
2022/02/04 04:00:26;;;;;;;14.95;5.53;;;;;;;;;;2115202;28;20528;-51
2022/02/04 04:01:27;;;;;;;14.77;6.32;;;;;;;;;;2113517;28;20128;-54
2022/02/04 04:02:28;;;;;;;17.52;5.50;;;;;;;;;;2114810;28;20121;-53
2022/02/04 04:03:29;;;;;;;14.50;5.53;;;;;;;;;;2115342;28;20413;-53
2022/02/04 04:04:33;;;;;;;10.50;4.80;;;;;;;;;;2112026;28;20039;-51
2022/02/04 04:05:38;;;;;;;12.50;4.68;;;;;;;;;;2114975;28;20123;-53
2022/02/04 04:06:39;;;;;;;13.35;6.20;;;;;;;;;;2115690;28;20409;-51
2022/02/04 04:07:44;;;;;;;16.42;5.68;;;;;;;;;;2107752;28;20371;-51
2022/02/04 04:08:45;;;;;;;13.40;5.00;;;;;;;;;;2106786;28;20126;-53
2022/02/04 04:09:50;;;;;;;13.40;5.60;;;;;;;;;;2107646;28;20359;-52
2022/02/04 04:10:53;;;;;;;15.43;5.47;;;;;;;;;;2113724;28;20066;-53
2022/02/04 04:11:55;;;;;;;14.30;4.78;;;;;;;;;;2115113;28;20890;-54
2022/02/04 04:12:58;;;;;;;14.30;6.75;;;;;;;;;;2109383;28;20843;-54
2022/02/04 04:14:00;;;;;;;13.00;6.03;;;;;;;;;;2115160;28;20040;-52
2022/02/04 04:15:06;;;;;;;14.05;5.25;;;;;;;;;;2115036;28;20375;-54
2022/02/04 04:16:07;;;;;;;15.88;6.03;;;;;;;;;;2112246;28;20075;-54
2022/02/04 04:17:08;;;;;;;13.60;5.70;;;;;;;;;;2115114;28;20308;-51
2022/02/04 04:18:12;;;;;;;13.38;6.57;;;;;;;;;;2114025;28;20550;-51
2022/02/04 04:19:13;;;;;;;13.23;5.30;;;;;;;;;;2108601;28;20181;-52
2022/02/04 04:20:15;;;;;;;16.23;6.07;;;;;;;;;;2106523;28;20712;-52
2022/02/04 04:21:16;;;;;;;;;;;;;;;;;;2108736;28;20079;-53
2022/02/04 04:22:17;;;;;;;9.82;4.43;;;;;;;;;;2114513;28;20391;-53
2022/02/04 04:23:18;;;;;;;11.45;5.68;;;;;;;;;;2115161;28;20130;-53
2022/02/04 04:24:19;;;;;;;15.43;5.07;;;;;;;;;;2111107;28;20048;-54
2022/02/04 04:25:20;;;;;;;15.43;5.65;;;;;;;;;;2115046;28;20519;-51
2022/02/04 04:26:22;;;;;;;15.10;5.13;;;;;;;;;;2115229;28;20047;-53
2022/02/04 04:27:23;;;;;;;20.70;6.38;;;;;;;;;;2111725;28;20093;-53
2022/02/04 04:28:24;;;;;;;12.48;5.40;;;;;;;;;;2115159;28;20044;-51
2022/02/04 04:29:25;;;;;;;12.40;5.00;;;;;;;;;;2115721;28;20144;-51
2022/02/04 04:30:26;;;;;;;14.67;5.83;;;;;;;;;;2107365;28;20097;-53
2022/02/04 04:31:27;;;;;;;13.27;5.15;;;;;;;;;;2106603;28;20055;-53
2022/02/04 04:32:28;;;;;;;13.18;5.60;;;;;;;;;;2108904;28;20090;-52
2022/02/04 04:33:29;;;;;;;13.50;5.05;;;;;;;;;;2113730;28;20134;-54
2022/02/04 04:34:30;;;;;;;13.60;5.73;;;;;;;;;;2115017;28;20496;-54
2022/02/04 04:35:32;;;;;;;13.27;5.95;;;;;;;;;;2109102;28;20039;-53
2022/02/04 04:36:34;;;;;;;10.82;4.50;;;;;;;;;;2114936;28;20122;-54
2022/02/04 04:37:35;;;;;;;19.85;5.50;;;;;;;;;;2115076;28;20078;-52
2022/02/04 04:38:41;;;;;;;13.20;5.10;;;;;;;;;;2112807;28;20127;-54
2022/02/04 04:39:53;;;;;;;10.48;4.60;;;;;;;;;;2115064;28;20115;-54
2022/02/04 04:41:06;;;;;;;8.60;5.05;;;;;;;;;;2113135;28;20395;-54
2022/02/04 04:42:14;;;;;;;11.00;5.35;;;;;;;;;;2106425;28;20356;-54
2022/02/04 04:43:28;;;;;;;8.40;3.17;;;;;;;;;;2106722;28;20355;-54
2022/02/04 04:46:20;;;;;;;10.13;4.43;;;;;;;;;;2088818;28;20317;-55
2022/02/04 05:26:27;;;;;;;16.23;6.05;;;;;;;;;;2111359;28;20359;-45
2022/02/04 05:27:57;;;;;;;15.32;6.18;;;;;;;;;;2106144;28;20363;-45
2022/02/04 05:29:04;;;;;;;20.48;6.25;;;;;;;;;;2108130;28;20062;-45
2022/02/04 05:30:07;;;;;;;8.80;4.10;;;;;;;;;;2112264;28;20291;-44
2022/02/04 05:31:08;;;;;;;13.48;5.82;;;;;;;;;;2114662;28;20307;-44
2022/02/04 05:32:09;;;;;;;13.77;6.30;;;;;;;;;;2111323;28;20716;-44
2022/02/04 05:33:11;;;;;;;15.97;6.17;;;;;;;;;;2106015;28;20052;-45
2022/02/04 05:34:14;;;;;;;16.95;5.93;;;;;;;;;;2106185;28;20128;-44
2022/02/04 05:35:17;;;;;;;20.83;7.97;;;;;;;;;;2109565;28;20079;-54
2022/02/04 05:36:18;;;;;;;17.25;7.43;;;;;;;;;;2106120;28;20333;-55
2022/02/04 05:37:23;;;;;;;;;;;;;;;;;;2108597;28;20277;-55
2022/02/04 05:38:25;;;;;;;20.38;7.20;;;;;;;;;;2111619;28;19955;-55
2022/02/04 05:39:32;;;;;;;21.27;6.88;;;;;;;;;;2114533;28;20083;-55
2022/02/04 05:40:40;;;;;;;12.77;6.22;;;;;;;;;;2111306;28;20284;-55
2022/02/04 05:41:46;;;;;;;17.27;7.50;;;;;;;;;;2106065;28;20375;-55
2022/02/04 05:42:52;;;;;;;14.40;6.85;;;;;;;;;;2105979;28;20319;-55
2022/02/04 05:43:55;;;;;;;18.15;6.70;;;;;;;;;;2110801;28;20126;-55
2022/02/04 05:45:00;;;;;;;16.17;6.65;;;;;;;;;;2114554;28;20126;-54
2022/02/04 05:46:05;;;;;;;20.52;7.65;;;;;;;;;;2113098;28;20126;-55
2022/02/04 05:47:14;;;;;;;19.60;8.02;;;;;;;;;;2112360;28;20626;-55
2022/02/04 05:48:15;;;;;;;28.05;9.55;;;;;;;;;;2114481;28;20347;-54
2022/02/04 05:49:18;;;;;;;25.95;9.02;;;;;;;;;;2111748;28;20825;-55
2022/02/04 05:50:24;;;;;;;25.45;10.10;;;;;;;;;;2105944;28;20138;-55
2022/02/04 05:51:38;;;;;;;27.67;9.30;;;;;;;;;;2105783;28;20048;-55
2022/02/04 05:52:55;;;;;;;29.40;10.80;;;;;;;;;;2106917;28;20319;-55
2022/02/04 05:54:02;;;;;;;47.05;14.00;;;;;;;;;;2106165;28;20364;-55
2022/02/04 05:55:16;;;;;;;38.78;12.88;;;;;;;;;;2109720;28;20880;-55
2022/02/04 05:56:28;;;;;;;43.08;15.35;;;;;;;;;;2106012;28;20283;-55
2022/02/04 05:57:45;;;;;;;42.67;17.75;;;;;;;;;;2108561;28;20316;-55
2022/02/04 05:58:57;;;;;;;49.95;19.92;;;;;;;;;;2106019;28;20378;-55
2022/02/04 06:00:16;;;;;;;45.85;20.13;;;;;;;;;;2108125;28;20123;-54
2022/02/04 06:03:02;;;;;;;52.53;20.65;;;;;;;;;;2080653;28;20072;-53
2022/02/04 06:04:17;;;;;;;55.90;20.60;;;;;;;;;;2079982;28;20286;-44
2022/02/04 06:05:38;;;;;;;55.13;20.48;;;;;;;;;;2091670;28;20056;-55
2022/02/04 06:08:20;;;;;;;79.57;23.40;;;;;;;;;;2114190;28;20764;-54
2022/02/04 06:09:54;;;;;;;67.05;21.63;;;;;;;;;;2106437;28;20415;-55
2022/02/04 06:11:12;;;;;;;65.18;21.73;;;;;;;;;;2105796;28;20126;-55
2022/02/04 06:12:32;;;;;;;68.82;21.98;;;;;;;;;;2109590;28;20279;-54
2022/02/04 06:13:43;;;;;;;70.43;25.02;;;;;;;;;;2114399;28;20275;-55
2022/02/04 06:14:53;;;;;;;68.63;23.60;;;;;;;;;;2111019;28;20351;-54
2022/02/04 06:22:28;;;;;;;73.43;24.08;;;;;;;;;;2114393;28;20498;-55
2022/02/04 06:23:29;;;;;;;78.28;28.67;;;;;;;;;;2108901;28;20083;-55
2022/02/04 06:24:37;;;;;;;77.68;27.42;;;;;;;;;;2114400;28;20299;-55
2022/02/04 06:25:39;;;;;;;74.68;25.40;;;;;;;;;;2111969;28;20276;-54
2022/02/04 06:26:40;;;;;;;74.10;28.83;;;;;;;;;;2112275;28;20122;-44
2022/02/04 06:27:41;;;;;;;74.90;25.75;;;;;;;;;;2114364;28;20054;-43
2022/02/04 06:28:42;;;;;;;80.22;25.80;;;;;;;;;;2111454;28;20068;-45
2022/02/04 06:29:44;;;;;;;80.05;26.58;;;;;;;;;;2105686;28;20094;-43
2022/02/04 06:30:45;;;;;;;73.75;23.35;;;;;;;;;;2105643;28;20071;-43
2022/02/04 06:31:46;;;;;;;39.70;14.50;;;;;;;;;;2109561;28;20132;-43
2022/02/04 06:32:48;;;;;;;43.93;18.00;;;;;;;;;;2114225;28;20446;-44
2022/02/04 06:33:49;;;;;;;44.13;17.58;;;;;;;;;;2113846;28;20142;-44
2022/02/04 06:34:51;;;;;;;41.38;14.10;;;;;;;;;;2107616;28;20074;-43
2022/02/04 06:35:52;;;;;;;23.52;10.18;;;;;;;;;;2105874;28;20122;-44
2022/02/04 06:36:53;;;;;;;21.85;9.05;;;;;;;;;;2106470;28;20285;-43
2022/02/04 06:37:54;;;;;;;25.00;10.75;;;;;;;;;;2111216;28;20074;-43
2022/02/04 06:38:55;;;;;;;20.93;9.27;;;;;;;;;;2114312;28;20454;-44
2022/02/04 06:39:56;;;;;;;27.60;10.07;;;;;;;;;;2112358;28;20088;-43
2022/02/04 06:40:58;;;;;;;19.90;9.27;;;;;;;;;;2114194;28;20385;-45
2022/02/04 06:41:59;;;;;;;21.92;8.40;;;;;;;;;;2114276;28;20363;-43
2022/02/04 06:43:00;;;;;;;18.80;7.30;;;;;;;;;;2111214;28;20497;-43
2022/02/04 06:44:02;;;;;;;21.38;8.27;;;;;;;;;;2114359;28;20075;-43
2022/02/04 06:45:05;;;;;;;28.23;10.88;;;;;;;;;;2114727;28;20058;-44
2022/02/04 06:46:06;;;;;;;18.55;8.65;;;;;;;;;;2106507;28;20131;-44
2022/02/04 06:47:07;;;;;;;20.23;8.75;;;;;;;;;;2105824;28;20070;-43
2022/02/04 06:48:09;;;;;;;22.10;9.37;;;;;;;;;;2107716;28;20039;-47
2022/02/04 06:49:10;;;;;;;28.17;9.88;;;;;;;;;;2106595;28;20481;-44
2022/02/04 06:50:11;;;;;;;20.42;9.30;;;;;;;;;;2105785;28;20052;-43
2022/02/04 06:51:12;;;;;;;20.98;8.23;;;;;;;;;;2106748;28;20501;-44
2022/02/04 06:52:13;;;;;;;25.17;9.73;;;;;;;;;;2105881;28;20142;-43
2022/02/04 06:53:14;;;;;;;22.85;8.63;;;;;;;;;;2105703;28;20052;-43
2022/02/04 06:54:15;;;;;;;22.17;9.23;;;;;;;;;;2109869;28;20520;-43
2022/02/04 06:55:16;;;;;;;24.97;9.67;;;;;;;;;;2114298;28;20050;-44
2022/02/04 06:56:17;;;;;;;19.60;8.20;;;;;;;;;;2112993;28;20497;-43
2022/02/04 06:57:18;;;;;;;19.57;8.20;;;;;;;;;;2109369;28;20039;-43
2022/02/04 06:58:19;;;;;;;19.00;7.10;;;;;;;;;;2114292;28;20059;-43
2022/02/04 06:59:20;;;;;;;22.42;8.32;;;;;;;;;;2115007;28;20097;-43
2022/02/04 07:00:25;;;;;;;22.47;9.10;;;;;;;;;;2106482;28;20044;-44
2022/02/04 07:01:28;;;;;;;17.60;7.45;;;;;;;;;;2105527;28;20090;-43
2022/02/04 07:02:29;;;;;;;21.15;9.70;;;;;;;;;;2108675;28;20488;-45
2022/02/04 07:03:32;;;;;;;18.67;8.15;;;;;;;;;;2106205;28;20489;-44
2022/02/04 07:04:35;;;;;;;21.80;9.73;;;;;;;;;;2105578;28;20135;-44
2022/02/04 07:05:41;;;;;;;21.35;9.70;;;;;;;;;;2109864;28;20071;-44
2022/02/04 07:06:51;;;;;;;20.00;8.27;;;;;;;;;;2113972;28;20051;-44
2022/02/04 07:08:03;;;;;;;22.10;9.55;;;;;;;;;;2114484;28;20083;-44
2022/02/04 07:09:16;;;;;;;22.58;8.77;;;;;;;;;;2112339;28;20039;-44
2022/02/04 07:10:23;;;;;;;18.35;8.10;;;;;;;;;;2114146;28;20119;-44
2022/02/04 07:11:46;;;;;;;20.08;8.23;;;;;;;;;;2108731;28;20044;-44
2022/02/04 07:12:54;;;;;;;;;;;;;;;;;;2114414;28;20123;-45
2022/02/04 07:14:08;;;;;;;21.35;7.47;;;;;;;;;;2111830;28;19920;-44
2022/02/04 07:15:47;;;;;;;17.63;7.60;;;;;;;;;;2105502;28;20091;-44
2022/02/04 07:17:09;;;;;;;17.20;8.23;;;;;;;;;;2109824;28;20569;-44
2022/02/04 07:19:45;;;;;;;20.25;8.65;;;;;;;;;;2110768;28;20078;-45
2022/02/04 07:20:46;;;;;;;20.75;9.02;;;;;;;;;;2105625;28;20072;-45
2022/02/04 07:21:47;;;;;;;20.00;9.97;;;;;;;;;;2106331;28;20051;-45
2022/02/04 07:22:49;;;;;;;19.95;8.90;;;;;;;;;;2106380;28;20064;-45
2022/02/04 07:23:49;;;;;;;12.55;6.50;;;;;;;;;;2105575;28;20123;-44
2022/02/04 07:24:53;;;;;;;17.57;8.60;;;;;;;;;;2108623;28;20042;-54
2022/02/04 07:25:54;;;;;;;20.60;9.15;;;;;;;;;;2105556;28;20090;-51
2022/02/04 07:26:56;;;;;;;23.88;10.27;;;;;;;;;;2105534;28;20097;-55
2022/02/04 07:27:57;;;;;;;19.55;8.77;;;;;;;;;;2109580;28;20126;-54
2022/02/04 07:29:14;;;;;;;19.55;9.18;;;;;;;;;;2113907;28;20047;-54
2022/02/04 07:30:15;;;;;;;20.33;9.77;;;;;;;;;;2111979;28;20047;-54
2022/02/04 07:31:18;;;;;;;20.55;9.52;;;;;;;;;;2111468;28;20047;-53
2022/02/04 07:32:24;;;;;;;23.02;10.15;;;;;;;;;;2113988;28;20078;-53
2022/02/04 07:33:38;;;;;;;27.15;10.60;;;;;;;;;;2109934;28;20110;-54
2022/02/04 07:34:59;;;;;;;23.23;10.63;;;;;;;;;;2105500;28;20550;-52
2022/02/04 07:41:32;;;;;;;23.17;10.25;;;;;;;;;;2075237;28;20068;-54
2022/02/04 07:42:33;;;;;;;21.00;9.32;;;;;;;;;;2080738;28;20051;-48
2022/02/04 07:43:34;;;;;;;22.95;10.07;;;;;;;;;;2100077;28;20059;-45
2022/02/04 07:44:35;;;;;;;24.30;10.82;;;;;;;;;;2109088;28;20551;-46
2022/02/04 07:45:36;;;;;;;24.63;11.05;;;;;;;;;;2113981;28;20047;-45
2022/02/04 07:46:38;;;;;;;19.08;8.90;;;;;;;;;;2115319;28;20563;-49
2022/02/04 07:47:38;;;;;;;25.05;10.57;;;;;;;;;;2111990;28;20068;-45
2022/02/04 07:48:40;;;;;;;24.48;11.55;;;;;;;;;;2106996;28;20056;-47
2022/02/04 07:49:46;;;;;;;26.42;11.45;;;;;;;;;;2106885;28;20060;-46
2022/02/04 07:50:48;;;;;;;21.92;12.20;;;;;;;;;;2109982;28;20118;-46
2022/02/04 07:51:49;;;;;;;32.55;13.88;;;;;;;;;;2115270;28;20212;-46
2022/02/04 07:52:50;;;;;;;27.58;13.07;;;;;;;;;;2115900;28;20054;-46
2022/02/04 07:53:51;;;;;;;27.63;12.43;;;;;;;;;;2112221;28;20177;-45
2022/02/04 07:54:52;;;;;;;34.10;13.55;;;;;;;;;;2115192;28;20048;-47
2022/02/04 07:55:53;;;;;;;32.47;14.33;;;;;;;;;;2113275;28;20043;-47
2022/02/04 07:56:56;;;;;;;29.70;14.38;;;;;;;;;;2113867;28;20503;-46
2022/02/04 07:58:09;;;;;;;32.40;15.13;;;;;;;;;;2115352;28;20039;-50
2022/02/04 07:59:10;;;;;;;26.90;14.20;;;;;;;;;;2112096;28;20130;-45
2022/02/04 08:00:14;;;;;;;32.00;14.02;;;;;;;;;;2115411;28;20052;-45
2022/02/04 08:01:19;;;;;;;30.23;13.80;;;;;;;;;;2111962;28;20079;-47
2022/02/04 08:02:20;;;;;;;32.65;14.82;;;;;;;;;;2111978;28;20126;-48
2022/02/04 08:03:31;;;;;;;32.53;13.90;;;;;;;;;;2115110;28;20123;-46
2022/02/04 08:04:33;;;;;;;26.80;13.30;;;;;;;;;;2113225;28;20078;-51
2022/02/04 08:05:34;;;;;;;;;;;;;;;;;;2107779;28;20515;-47
2022/02/04 08:06:40;;;;;;;26.65;11.70;;;;;;;;;;2106692;28;19920;-48
2022/02/04 08:07:50;;;;;;;27.70;12.43;;;;;;;;;;2110973;28;20075;-45
2022/02/04 08:08:57;;;;;;;25.65;13.93;;;;;;;;;;2115139;28;20157;-45
2022/02/04 08:10:06;;;;;;;26.08;12.23;;;;;;;;;;2108626;28;20501;-46
2022/02/04 08:12:59;;;;;;;20.08;11.40;;;;;;;;;;2109593;28;20517;-48
2022/02/04 08:14:09;;;;;;;27.70;12.27;;;;;;;;;;2113640;28;20063;-46
2022/02/04 08:15:20;;;;;;;33.33;13.68;;;;;;;;;;2115206;28;20429;-47
2022/02/04 08:18:14;;;;;;;24.85;12.10;;;;;;;;;;2106796;28;20043;-50
2022/02/04 08:21:07;;;;;;;31.98;13.55;;;;;;;;;;2114994;28;20417;-46
2022/02/04 08:22:39;;;;;;;24.48;12.15;;;;;;;;;;2107499;28;20474;-49
2022/02/04 08:25:13;;;;;;;26.15;11.75;;;;;;;;;;2112814;28;20083;-46
2022/02/04 08:26:25;;;;;;;25.80;11.10;;;;;;;;;;2115131;28;20075;-45
2022/02/04 08:29:12;;;;;;;26.25;11.82;;;;;;;;;;2088857;28;20077;-46
2022/02/04 08:32:01;;;;;;;27.27;11.95;;;;;;;;;;2089046;28;20555;-57
2022/02/04 08:33:30;;;;;;;24.33;11.93;;;;;;;;;;2111906;28;20079;-58
2022/02/04 08:36:22;;;;;;;27.92;11.70;;;;;;;;;;2107493;28;20075;-58
2022/02/04 08:37:57;;;;;;;;;;;;;;;;;;2107157;28;20083;-58
2022/02/04 08:39:14;;;;;;;;;;;;;;;;;;2110087;28;19927;-58
2022/02/04 08:47:33;;;;;;;25.70;11.77;;;;;;;;;;2109278;28;20067;-57
2022/02/04 08:48:56;;;;;;;25.98;11.60;;;;;;;;;;2115033;28;20082;-57
2022/02/04 08:52:56;;;;;;;26.80;11.15;;;;;;;;;;2103469;28;20450;-58
2022/02/04 08:54:08;;;;;;;22.45;10.75;;;;;;;;;;2106438;28;20580;-57